Time;durP1;ratioP1;P1;durP2;ratioP2;P2;SDS_P1;SDS_P2;PMS_P1;PMS_P2;Temp;Humidity;BMP_temperature;BMP_pressure;BME280_temperature;BME280_humidity;BME280_pressure;Samples;Min_cycle;Max_cycle;Signal;HPM_P1;HPM_P2
2022/09/16 00:02:10;;;;;;;6.18;0.30;;;;;;;16.57;59.05;101098.53;7390639;19;20017;-84
2022/09/16 00:04:41;;;;;;;3.75;0.30;;;;;;;16.56;59.15;101100.38;7386241;19;20015;-84
2022/09/16 00:07:07;;;;;;;3.08;0.20;;;;;;;16.53;59.27;101094.59;7390017;19;20547;-84
2022/09/16 00:09:36;;;;;;;1.98;0.30;;;;;;;16.50;59.48;101098.47;7390108;19;20043;-85
2022/09/16 00:12:05;;;;;;;3.22;0.30;;;;;;;16.49;59.72;101099.47;7393802;19;20014;-84
2022/09/16 00:14:33;;;;;;;2.38;0.40;;;;;;;16.47;59.32;101085.53;7388184;19;20031;-84
2022/09/16 00:17:00;;;;;;;1.50;0.20;;;;;;;16.49;58.93;101091.50;7389172;19;20475;-85
2022/09/16 00:19:28;;;;;;;1.58;0.30;;;;;;;16.41;59.34;101093.41;7390396;19;20014;-85
2022/09/16 00:21:57;;;;;;;2.25;0.22;;;;;;;16.38;59.44;101088.47;7389184;19;20025;-85
2022/09/16 00:24:25;;;;;;;4.32;0.30;;;;;;;16.38;59.62;101097.28;7389757;19;20022;-85
2022/09/16 00:26:52;;;;;;;2.70;0.30;;;;;;;16.33;59.66;101102.31;7386109;19;20138;-85
2022/09/16 00:29:21;;;;;;;2.33;0.20;;;;;;;16.33;59.89;101097.00;7388133;19;20084;-85
2022/09/16 00:31:50;;;;;;;0.77;0.15;;;;;;;16.33;59.53;101096.19;7387248;19;20031;-85
2022/09/16 00:34:20;;;;;;;0.82;0.28;;;;;;;16.26;59.50;101096.06;7389336;19;20010;-85
2022/09/16 00:36:49;;;;;;;2.58;0.30;;;;;;;16.23;60.44;101096.44;7388565;19;20025;-86
2022/09/16 00:39:18;;;;;;;1.83;0.20;;;;;;;16.18;60.30;101093.53;7388304;19;20014;-85
2022/09/16 00:41:47;;;;;;;1.95;0.35;;;;;;;16.16;60.27;101098.19;7388973;19;20078;-83
2022/09/16 00:44:22;;;;;;;0.85;0.20;;;;;;;16.14;60.74;101100.22;7387071;19;20082;-84
2022/09/16 00:46:54;;;;;;;3.30;0.40;;;;;;;16.14;60.38;101090.41;7390554;19;20022;-84
2022/09/16 00:49:24;;;;;;;1.15;0.30;;;;;;;16.12;60.17;101097.72;7388080;19;20017;-84
2022/09/16 00:51:58;;;;;;;2.17;0.20;;;;;;;16.11;61.21;101096.06;7388717;19;20038;-84
2022/09/16 00:54:27;;;;;;;4.07;0.30;;;;;;;16.10;61.10;101105.03;7385097;19;20047;-84
2022/09/16 00:56:59;;;;;;;1.77;0.20;;;;;;;16.05;60.92;101103.97;7390008;19;20010;-84
2022/09/16 00:59:30;;;;;;;1.85;0.20;;;;;;;16.03;60.75;101109.44;7385954;19;20014;-84
2022/09/16 01:02:04;;;;;;;3.00;0.30;;;;;;;16.00;61.25;101111.66;7388473;19;20024;-85
2022/09/16 01:07:03;;;;;;;2.90;0.20;;;;;;;15.94;61.79;101113.19;7392051;19;20583;-85
2022/09/16 01:09:30;;;;;;;1.20;0.15;;;;;;;15.88;61.91;101105.13;7388180;19;20370;-84
2022/09/16 01:11:58;;;;;;;1.80;0.20;;;;;;;15.83;61.91;101103.81;7388895;19;20031;-85
2022/09/16 01:17:06;;;;;;;5.32;0.30;;;;;;;15.77;62.61;101096.59;7386964;19;20010;-85
2022/09/16 01:19:36;;;;;;;4.28;0.30;;;;;;;15.79;63.09;101109.69;7386456;19;20011;-83
2022/09/16 01:22:03;;;;;;;1.75;0.30;;;;;;;15.76;63.15;101108.19;7389863;19;20031;-85
2022/09/16 01:24:37;;;;;;;2.30;0.20;;;;;;;15.75;63.30;101111.03;7386832;19;20379;-84
2022/09/16 01:27:16;;;;;;;1.83;0.20;;;;;;;15.73;63.53;101111.22;7389376;19;20015;-84
2022/09/16 01:29:56;;;;;;;3.25;0.20;;;;;;;15.72;63.26;101109.56;7387666;19;20006;-84
2022/09/16 01:32:24;;;;;;;3.17;0.20;;;;;;;15.73;63.36;101099.78;7388847;19;20025;-84
2022/09/16 01:34:51;;;;;;;0.95;0.20;;;;;;;15.67;63.38;101103.13;7387991;19;20496;-83
2022/09/16 01:37:22;;;;;;;0.52;0.20;;;;;;;15.60;64.21;101104.84;7384135;19;20023;-84
2022/09/16 01:39:53;;;;;;;3.90;0.30;;;;;;;15.53;64.05;101098.63;7390296;19;20018;-83
2022/09/16 01:42:29;;;;;;;2.38;0.20;;;;;;;15.50;64.37;101101.59;7388452;19;20356;-84
2022/09/16 01:44:59;;;;;;;2.78;0.22;;;;;;;15.45;64.86;101104.78;7383250;19;20011;-84
2022/09/16 01:47:35;;;;;;;2.15;0.20;;;;;;;15.40;64.98;101096.53;7387563;19;20402;-86
2022/09/16 01:50:06;;;;;;;0.85;0.20;;;;;;;15.36;65.40;101093.41;7386783;19;20025;-84
2022/09/16 01:52:39;;;;;;;3.28;0.25;;;;;;;15.33;65.64;101100.91;7390326;19;20014;-84
2022/09/16 01:55:09;;;;;;;1.98;0.30;;;;;;;15.30;65.65;101094.13;7387638;19;20402;-84
2022/09/16 01:57:43;;;;;;;2.70;0.30;;;;;;;15.27;65.77;101102.44;7385927;19;20015;-85
2022/09/16 02:00:13;;;;;;;2.00;0.20;;;;;;;15.28;66.03;101097.97;7383714;19;20014;-85
2022/09/16 02:02:45;;;;;;;1.92;0.20;;;;;;;15.22;66.27;101098.66;7385224;19;20025;-85
2022/09/16 02:05:17;;;;;;;1.85;0.15;;;;;;;15.18;66.42;101092.88;7385710;19;19999;-85
2022/09/16 02:07:50;;;;;;;2.67;0.20;;;;;;;15.14;66.77;101090.75;7388217;19;20019;-85
2022/09/16 02:10:24;;;;;;;1.45;0.25;;;;;;;15.07;67.12;101090.63;7388259;19;20021;-85
2022/09/16 02:12:57;;;;;;;1.65;0.38;;;;;;;15.03;67.33;101097.28;7387640;19;20471;-85
2022/09/16 02:15:27;;;;;;;0.35;0.10;;;;;;;14.99;67.84;101104.75;7384085;19;20006;-85
2022/09/16 02:18:02;;;;;;;2.58;0.20;;;;;;;14.99;67.84;101109.22;7384473;19;20023;-85
2022/09/16 02:20:34;;;;;;;3.58;0.30;;;;;;;14.99;67.86;101117.19;7386507;19;20014;-85
2022/09/16 02:23:08;;;;;;;1.80;0.30;;;;;;;15.01;68.13;101109.06;7385646;19;20013;-85
2022/09/16 02:25:38;;;;;;;2.28;0.30;;;;;;;14.99;68.07;101104.75;7389590;19;20022;-84
2022/09/16 02:28:11;;;;;;;3.50;0.10;;;;;;;14.97;68.05;101109.41;7387487;19;20026;-85
2022/09/16 02:30:42;;;;;;;2.47;0.20;;;;;;;14.92;68.38;101100.34;7383985;19;20022;-85
2022/09/16 02:33:12;;;;;;;1.80;0.10;;;;;;;14.89;68.33;101103.31;7387565;19;20007;-85
2022/09/16 02:35:47;;;;;;;2.85;0.30;;;;;;;14.90;68.60;101104.97;7385716;19;20061;-84
2022/09/16 02:38:22;;;;;;;2.60;0.20;;;;;;;14.80;69.05;101104.38;7387603;19;20040;-84
2022/09/16 02:40:54;;;;;;;3.53;0.20;;;;;;;14.74;69.15;101108.53;7382577;19;20049;-84
2022/09/16 02:43:24;;;;;;;1.98;0.20;;;;;;;14.72;69.48;101115.84;7389061;19;20706;-84
2022/09/16 02:45:56;;;;;;;1.65;0.20;;;;;;;14.73;69.73;101114.81;7384590;19;20014;-84
2022/09/16 02:48:31;;;;;;;2.95;0.22;;;;;;;14.75;69.49;101115.47;7386233;19;20035;-85
2022/09/16 02:50:59;;;;;;;1.60;0.28;;;;;;;14.73;69.57;101116.66;7385369;19;20017;-84
2022/09/16 02:53:39;;;;;;;5.90;0.40;;;;;;;14.71;69.66;101114.19;7385655;19;20365;-84
2022/09/16 02:56:13;;;;;;;3.53;0.30;;;;;;;14.65;69.96;101108.75;7385667;19;20400;-84
2022/09/16 02:58:43;;;;;;;4.25;0.75;;;;;;;14.63;70.53;101111.56;7391085;19;20010;-84
2022/09/16 03:01:13;;;;;;;1.48;0.20;;;;;;;14.65;70.38;101100.78;7391143;19;20563;-84
2022/09/16 03:03:41;;;;;;;3.92;0.30;;;;;;;14.68;70.29;101106.56;7395292;19;20010;-85
2022/09/16 03:06:13;;;;;;;3.60;0.40;;;;;;;14.69;70.33;101102.91;7394439;19;20061;-83
2022/09/16 03:08:45;;;;;;;3.78;0.20;;;;;;;14.69;70.29;101107.41;7397007;19;20370;-84
2022/09/16 03:11:17;;;;;;;3.20;0.20;;;;;;;14.68;70.56;101101.25;7392028;19;20010;-84
2022/09/16 03:13:53;;;;;;;2.05;0.20;;;;;;;14.68;70.56;101106.56;7395673;19;20036;-85
2022/09/16 03:16:29;;;;;;;2.55;0.30;;;;;;;14.72;70.96;101104.41;7392462;19;20027;-86
2022/09/16 03:19:05;;;;;;;2.67;0.30;;;;;;;14.71;70.36;101105.41;7391518;19;20140;-85
2022/09/16 03:21:45;;;;;;;3.50;0.20;;;;;;;14.71;70.18;101106.25;7390617;19;20106;-83
2022/09/16 03:24:13;;;;;;;6.53;0.30;;;;;;;14.70;70.63;101107.22;7392691;19;20009;-84
2022/09/16 03:26:41;;;;;;;1.85;0.47;;;;;;;14.70;70.73;101103.75;7392257;19;20479;-83
2022/09/16 03:29:11;;;;;;;1.58;0.40;;;;;;;14.74;70.81;101097.09;7385729;19;20022;-83
2022/09/16 03:31:41;;;;;;;2.05;0.20;;;;;;;14.76;70.69;101103.91;7389849;19;20676;-84
2022/09/16 03:34:12;;;;;;;1.83;0.20;;;;;;;14.78;70.62;101109.81;7392578;19;20025;-83
2022/09/16 03:36:47;;;;;;;5.35;0.30;;;;;;;14.85;69.76;101116.09;7392612;19;20028;-84
2022/09/16 03:41:43;;;;;;;4.47;0.30;;;;;;;14.82;70.26;101118.28;7391822;19;20362;-84
2022/09/16 03:44:12;;;;;;;3.10;0.30;;;;;;;14.80;70.62;101113.16;7390430;19;20006;-84
2022/09/16 03:46:40;;;;;;;2.13;0.20;;;;;;;14.83;70.47;101122.59;7391425;19;20758;-84
2022/09/16 03:49:10;;;;;;;2.72;0.20;;;;;;;14.85;70.69;101125.88;7388857;19;20018;-84
2022/09/16 03:51:38;;;;;;;0.90;0.25;;;;;;;14.87;70.62;101122.06;7389797;19;20019;-84
2022/09/16 03:54:06;;;;;;;1.92;0.20;;;;;;;14.90;70.06;101115.56;7389014;19;20034;-84
2022/09/16 03:56:35;;;;;;;4.57;0.60;;;;;;;14.88;70.53;101112.28;7392726;19;20044;-84
2022/09/16 03:59:02;;;;;;;2.47;0.50;;;;;;;14.89;70.67;101117.41;7385770;19;20018;-83
2022/09/16 04:01:31;;;;;;;4.03;0.20;;;;;;;14.90;70.43;101119.06;7389984;19;20424;-84
2022/09/16 04:04:00;;;;;;;1.30;0.30;;;;;;;14.87;70.41;101114.09;7388591;19;20727;-83
2022/09/16 04:06:29;;;;;;;3.90;0.20;;;;;;;14.87;70.64;101121.22;7390749;19;20014;-83
2022/09/16 04:08:58;;;;;;;3.63;0.30;;;;;;;14.87;70.41;101123.88;7388135;19;20039;-84
2022/09/16 04:11:28;;;;;;;2.00;0.30;;;;;;;14.87;70.71;101127.34;7387520;19;20014;-84
2022/09/16 04:13:57;;;;;;;1.40;0.30;;;;;;;14.87;70.88;101118.59;7388139;19;20362;-85
2022/09/16 04:16:26;;;;;;;1.98;0.30;;;;;;;14.85;70.64;101113.44;7388556;19;20027;-83
2022/09/16 04:18:53;;;;;;;1.75;0.20;;;;;;;14.84;70.65;101116.25;7387333;19;20018;-83
2022/09/16 04:21:21;;;;;;;2.50;0.20;;;;;;;14.83;70.93;101127.88;7390598;19;20010;-85
2022/09/16 04:23:50;;;;;;;2.88;0.40;;;;;;;14.83;70.68;101114.63;7389796;19;20586;-85
2022/09/16 04:26:18;;;;;;;1.50;0.28;;;;;;;14.81;70.79;101120.09;7388316;19;20360;-85
2022/09/16 04:28:47;;;;;;;3.45;0.50;;;;;;;14.81;71.87;101125.41;7387388;19;20014;-84
2022/09/16 04:31:15;;;;;;;1.83;0.30;;;;;;;14.81;71.66;101132.50;7386055;19;20757;-85
2022/09/16 04:33:44;;;;;;;4.65;0.32;;;;;;;14.78;71.29;101124.94;7387443;19;20007;-84
2022/09/16 04:36:15;;;;;;;1.65;0.20;;;;;;;14.71;71.15;101134.53;7389751;19;20047;-84
2022/09/16 04:38:46;;;;;;;1.77;0.30;;;;;;;14.68;71.17;101135.69;7386683;19;20102;-85
2022/09/16 04:41:17;;;;;;;2.10;0.20;;;;;;;14.62;71.67;101135.59;7387995;19;20222;-85
2022/09/16 04:43:45;;;;;;;2.83;0.60;;;;;;;14.62;71.66;101125.81;7384984;19;20035;-85
2022/09/16 04:46:14;;;;;;;1.73;0.40;;;;;;;14.61;72.20;101134.75;7385894;19;20041;-84
2022/09/16 04:48:42;;;;;;;3.42;0.20;;;;;;;14.61;71.97;101125.97;7387583;19;20031;-85
2022/09/16 04:51:12;;;;;;;1.73;0.30;;;;;;;14.62;71.67;101125.00;7385159;19;20358;-83
2022/09/16 04:53:42;;;;;;;5.25;0.30;;;;;;;14.61;72.10;101123.34;7387329;19;20036;-85
2022/09/16 04:56:16;;;;;;;1.75;0.45;;;;;;;14.59;72.33;101112.06;7387738;19;20034;-84
2022/09/16 04:58:47;;;;;;;2.47;0.30;;;;;;;14.58;72.05;101123.69;7386719;19;20031;-84
2022/09/16 05:01:17;;;;;;;1.52;0.30;;;;;;;14.55;71.99;101124.84;7385804;19;20015;-84
2022/09/16 05:03:48;;;;;;;4.47;0.50;;;;;;;14.51;72.24;101129.66;7383831;19;20352;-85
2022/09/16 05:06:19;;;;;;;2.85;0.30;;;;;;;14.50;72.35;101138.59;7389512;19;20034;-84
2022/09/16 05:08:48;;;;;;;3.17;0.60;;;;;;;14.49;72.68;101131.66;7386918;19;20040;-84
2022/09/16 05:11:22;;;;;;;2.55;0.32;;;;;;;14.45;72.51;101137.44;7388537;19;20026;-85
2022/09/16 05:13:52;;;;;;;1.90;0.30;;;;;;;14.41;72.81;101139.63;7389216;19;20028;-84
2022/09/16 05:16:22;;;;;;;2.47;0.28;;;;;;;14.35;73.15;101131.50;7386016;19;20022;-84
2022/09/16 05:18:53;;;;;;;2.22;0.20;;;;;;;14.34;73.43;101135.13;7382891;19;20486;-84
2022/09/16 05:21:21;;;;;;;3.90;0.30;;;;;;;14.34;73.01;101129.84;7388472;19;20022;-85
2022/09/16 05:23:50;;;;;;;6.07;0.28;;;;;;;14.28;73.28;101135.81;7389187;19;20363;-85
2022/09/16 05:26:19;;;;;;;2.55;0.40;;;;;;;14.27;73.52;101139.47;7387939;19;20516;-85
2022/09/16 05:28:47;;;;;;;3.28;0.35;;;;;;;14.27;73.98;101137.66;7387124;19;20022;-84
2022/09/16 05:31:17;;;;;;;3.08;0.28;;;;;;;14.29;73.48;101143.59;7384853;19;20023;-84
2022/09/16 05:33:45;;;;;;;6.60;0.30;;;;;;;14.30;73.68;101145.25;7384730;19;20023;-85
2022/09/16 05:36:16;;;;;;;1.35;0.30;;;;;;;14.30;73.84;101144.41;7387532;19;20024;-84
2022/09/16 05:38:45;;;;;;;6.03;0.35;;;;;;;14.29;73.71;101151.53;7384431;19;20102;-84
2022/09/16 05:41:14;;;;;;;4.78;0.38;;;;;;;14.31;73.58;101154.00;7387437;19;20018;-85
2022/09/16 05:43:42;;;;;;;4.20;0.60;;;;;;;14.33;73.57;101158.13;7384174;19;20015;-84
2022/09/16 05:46:17;;;;;;;2.20;0.30;;;;;;;14.29;73.53;101159.47;7382750;19;20114;-85
2022/09/16 05:48:45;;;;;;;2.40;0.30;;;;;;;14.28;73.78;101164.91;7383831;19;20007;-85
2022/09/16 05:51:14;;;;;;;3.33;0.30;;;;;;;14.25;74.19;101166.09;7385837;19;20425;-84
2022/09/16 05:53:47;;;;;;;2.60;0.50;;;;;;;14.21;74.26;101170.06;7385934;19;20360;-84
2022/09/16 05:56:18;;;;;;;2.70;0.30;;;;;;;14.20;74.21;101172.88;7386608;19;20032;-83
2022/09/16 05:58:49;;;;;;;3.08;0.30;;;;;;;14.17;74.67;101165.28;7385366;19;20086;-83
2022/09/16 06:01:21;;;;;;;1.92;0.30;;;;;;;14.12;74.57;101165.75;7386118;19;20007;-84
2022/09/16 06:03:50;;;;;;;3.65;0.40;;;;;;;14.10;74.97;101163.31;7386489;19;20086;-85
2022/09/16 06:06:23;;;;;;;5.50;0.65;;;;;;;14.07;74.83;101171.56;7385678;19;20566;-83
2022/09/16 06:08:51;;;;;;;3.28;0.50;;;;;;;14.04;74.75;101166.63;7385505;19;20026;-84
2022/09/16 06:11:21;;;;;;;1.88;0.30;;;;;;;14.06;75.07;101169.94;7384562;19;20093;-83
2022/09/16 06:13:54;;;;;;;1.90;0.50;;;;;;;14.05;74.96;101178.84;7382349;19;20015;-84
2022/09/16 06:16:24;;;;;;;3.00;0.30;;;;;;;14.05;75.29;101178.84;7383163;19;20026;-85
2022/09/16 06:18:54;;;;;;;5.20;0.45;;;;;;;14.05;74.86;101178.84;7381964;19;20014;-84
2022/09/16 06:21:23;;;;;;;3.50;0.40;;;;;;;14.04;75.35;101171.06;7385930;19;20524;-85
2022/09/16 06:23:50;;;;;;;2.25;0.40;;;;;;;14.04;75.26;101169.25;7383289;19;20014;-83
2022/09/16 06:26:20;;;;;;;7.85;0.60;;;;;;;14.04;75.22;101194.91;7385551;19;20018;-84
2022/09/16 06:28:48;;;;;;;7.32;0.88;;;;;;;14.06;75.25;101179.69;7381409;19;20455;-84
2022/09/16 06:31:23;;;;;;;3.55;0.50;;;;;;;14.07;75.10;101186.59;7382185;19;20014;-85
2022/09/16 06:33:50;;;;;;;;;;;;;;;14.09;74.87;101185.47;7383906;19;20018;-83
2022/09/16 06:36:22;;;;;;;3.65;0.50;;;;;;;14.06;75.27;101196.41;7383403;19;19915;-84
2022/09/16 06:38:50;;;;;;;2.00;0.43;;;;;;;14.05;75.21;101183.31;7384907;19;20018;-84
2022/09/16 06:41:19;;;;;;;2.38;0.40;;;;;;;14.04;74.81;101198.38;7381409;19;20026;-84
2022/09/16 06:43:47;;;;;;;4.72;0.40;;;;;;;14.04;75.37;101203.66;7385139;19;20040;-84
2022/09/16 06:46:19;;;;;;;5.90;0.52;;;;;;;14.07;75.39;101202.50;7354220;19;20387;-84
2022/09/16 06:48:55;;;;;;;4.28;0.52;;;;;;;14.07;75.52;101205.97;7373692;19;20041;-84
2022/09/16 06:51:33;;;;;;;4.80;0.80;;;;;;;14.11;76.54;101202.00;7386221;19;20048;-83
2022/09/16 06:54:03;;;;;;;3.95;0.50;;;;;;;14.12;75.95;101210.75;7385376;19;20018;-83
2022/09/16 06:56:32;;;;;;;4.80;0.88;;;;;;;14.13;75.41;101207.13;7381533;19;20803;-82
2022/09/16 06:58:59;;;;;;;4.53;0.50;;;;;;;14.16;75.23;101198.03;7384459;19;20010;-85
2022/09/16 07:01:30;;;;;;;2.60;0.50;;;;;;;14.21;74.76;101203.66;7387252;19;20026;-85
2022/09/16 07:04:04;;;;;;;3.22;0.50;;;;;;;14.22;75.00;101210.63;7385660;19;20365;-85
2022/09/16 07:06:32;;;;;;;;;;;;;;;14.21;74.83;101215.06;7387061;19;20503;-86
2022/09/16 07:09:19;;;;;;;3.60;0.60;;;;;;;14.21;74.66;101214.25;7386943;19;19949;-86
2022/09/16 07:11:54;;;;;;;6.70;0.50;;;;;;;14.16;75.16;101213.91;7386353;19;20022;-88
2022/09/16 07:14:23;;;;;;;4.70;0.50;;;;;;;14.15;74.71;101221.03;7382921;19;20018;-85
2022/09/16 07:16:54;;;;;;;4.38;0.47;;;;;;;14.12;74.59;101224.00;7381420;19;20022;-86
2022/09/16 07:19:22;;;;;;;4.72;0.40;;;;;;;14.09;74.88;101229.63;7383032;19;20401;-84
2022/09/16 07:21:49;;;;;;;4.18;0.70;;;;;;;14.08;75.38;101220.84;7384079;19;20019;-87
2022/09/16 07:24:17;;;;;;;1.83;0.40;;;;;;;14.12;75.73;101218.69;7357786;19;20071;-85
2022/09/16 07:29:16;;;;;;;5.70;0.40;;;;;;;14.22;74.41;101213.25;7381692;19;20673;-87
2022/09/16 07:31:44;;;;;;;5.05;0.40;;;;;;;14.21;74.39;101216.91;7370223;19;20594;-86
2022/09/16 07:34:12;;;;;;;3.30;0.50;;;;;;;14.27;74.65;101218.88;7377104;19;20023;-86
2022/09/16 07:36:45;;;;;;;3.20;0.50;;;;;;;14.29;74.28;101219.53;7380483;19;20014;-85
2022/09/16 07:39:13;;;;;;;2.53;0.70;;;;;;;14.27;74.27;101232.94;7380122;19;20010;-85
2022/09/16 07:41:43;;;;;;;1.65;0.50;;;;;;;14.28;74.38;101228.44;7383776;19;20028;-86
2022/09/16 07:44:13;;;;;;;2.55;0.90;;;;;;;14.36;74.21;101234.63;7386386;19;20014;-85
2022/09/16 07:46:41;;;;;;;4.82;0.73;;;;;;;14.38;74.25;101231.78;7388583;19;20036;-85
2022/09/16 07:49:11;;;;;;;2.92;0.40;;;;;;;14.39;74.07;101239.56;7382900;19;20036;-84
2022/09/16 07:51:37;;;;;;;5.75;0.43;;;;;;;14.39;74.39;101241.38;7387972;19;20018;-84
2022/09/16 07:54:08;;;;;;;4.40;0.50;;;;;;;14.43;73.98;101250.63;7389730;19;20014;-84
2022/09/16 07:56:36;;;;;;;1.25;0.40;;;;;;;14.45;73.88;101249.50;7394298;19;20018;-84
2022/09/16 07:59:04;;;;;;;4.22;0.40;;;;;;;14.48;73.72;101251.78;7393365;19;20447;-84
2022/09/16 08:01:32;;;;;;;3.42;0.40;;;;;;;14.54;73.11;101255.59;7390315;19;20015;-84
2022/09/16 08:04:00;;;;;;;3.50;0.95;;;;;;;14.55;73.46;101259.91;7392458;19;20011;-85
2022/09/16 08:06:30;;;;;;;4.13;1.25;;;;;;;14.54;74.27;101255.59;7391224;19;20011;-84
2022/09/16 08:09:03;;;;;;;4.05;1.83;;;;;;;14.53;74.92;101252.13;7392584;19;20507;-84
2022/09/16 08:11:51;;;;;;;3.60;0.40;;;;;;;14.56;72.99;101253.63;7390369;19;20036;-86
2022/09/16 08:14:18;;;;;;;2.83;0.38;;;;;;;14.69;71.04;101261.84;7389218;19;20014;-84
2022/09/16 08:16:45;;;;;;;3.40;0.40;;;;;;;14.75;70.29;101271.78;7387525;19;20040;-84
2022/09/16 08:19:13;;;;;;;1.63;0.22;;;;;;;14.72;70.26;101263.34;7389455;19;20006;-85
2022/09/16 08:21:40;;;;;;;3.67;0.32;;;;;;;14.71;70.36;101267.00;7393116;19;20006;-84
2022/09/16 08:24:09;;;;;;;2.90;0.20;;;;;;;14.75;69.64;101265.66;7391272;19;20014;-85
2022/09/16 08:26:37;;;;;;;4.82;0.20;;;;;;;14.78;69.26;101278.59;7389419;19;20040;-84
2022/09/16 08:29:04;;;;;;;5.78;0.30;;;;;;;14.76;69.63;101276.09;7386813;19;20050;-85
2022/09/16 08:31:32;;;;;;;2.78;0.30;;;;;;;14.80;69.93;101288.00;7386522;19;20020;-85
2022/09/16 08:33:59;;;;;;;3.75;0.20;;;;;;;14.85;69.05;101285.66;7381570;19;20022;-84
2022/09/16 08:36:26;;;;;;;3.33;0.30;;;;;;;14.90;68.67;101286.00;7388763;19;20426;-84
2022/09/16 08:38:55;;;;;;;2.63;0.22;;;;;;;14.92;69.04;101286.66;7387801;19;20040;-86
2022/09/16 08:41:28;;;;;;;5.40;0.28;;;;;;;14.96;69.17;101287.13;7386117;19;20022;-83
2022/09/16 08:43:59;;;;;;;3.13;0.28;;;;;;;14.96;68.93;101295.91;7387885;19;20038;-83
2022/09/16 08:46:30;;;;;;;1.35;0.30;;;;;;;14.99;69.14;101292.91;7387870;19;20360;-84
2022/09/16 08:49:06;;;;;;;2.30;0.75;;;;;;;15.02;69.14;101299.72;7390567;19;20011;-84
2022/09/16 08:51:34;;;;;;;3.95;0.40;;;;;;;15.06;69.07;101295.72;7392918;19;20014;-84
2022/09/16 08:54:03;;;;;;;2.90;0.40;;;;;;;15.14;68.10;101300.16;7387714;19;20515;-85
2022/09/16 08:59:02;;;;;;;1.48;0.30;;;;;;;15.16;67.74;101300.81;7388243;19;20484;-86
2022/09/16 09:01:33;;;;;;;0.95;0.17;;;;;;;15.16;66.89;101311.44;7386727;19;20014;-85
2022/09/16 09:04:02;;;;;;;3.33;0.20;;;;;;;15.14;67.20;101318.72;7389911;19;20476;-86
2022/09/16 09:06:33;;;;;;;2.08;0.28;;;;;;;15.15;67.80;101313.25;7353272;19;20049;-86
2022/09/16 09:09:15;;;;;;;2.55;0.30;;;;;;;15.20;67.69;101315.38;7383270;19;20015;-87
2022/09/16 09:11:51;;;;;;;2.47;0.30;;;;;;;15.19;67.90;101319.03;7385584;19;20011;-85
2022/09/16 09:14:26;;;;;;;9.98;4.68;;;;;;;15.23;67.49;101310.59;7382613;19;20023;-85
2022/09/16 09:17:03;;;;;;;5.38;1.90;;;;;;;15.23;67.20;101325.66;7380954;19;20502;-83
2022/09/16 09:19:37;;;;;;;2.15;0.20;;;;;;;15.23;66.99;101320.38;7381356;19;20050;-85
2022/09/16 09:22:12;;;;;;;1.50;0.30;;;;;;;15.22;65.83;101321.34;7386901;19;20605;-85
2022/09/16 09:24:48;;;;;;;0.95;0.28;;;;;;;15.20;65.67;101326.00;7383974;19;20021;-86
2022/09/16 09:27:28;;;;;;;3.10;0.10;;;;;;;15.16;64.69;101324.69;7383872;19;20011;-85
2022/09/16 09:29:59;;;;;;;1.25;0.30;;;;;;;15.16;65.07;101338.75;7381984;19;20381;-85
2022/09/16 09:32:29;;;;;;;1.48;0.22;;;;;;;15.19;63.09;101330.47;7383965;19;20019;-86
2022/09/16 09:35:05;;;;;;;3.40;0.20;;;;;;;15.21;63.05;101335.59;7382748;19;20011;-85
2022/09/16 09:37:35;;;;;;;1.27;0.25;;;;;;;15.22;63.12;101330.13;7389957;19;20006;-86
2022/09/16 09:40:12;;;;;;;1.67;0.30;;;;;;;15.24;62.33;101336.06;7386222;19;20527;-86
2022/09/16 09:42:46;;;;;;;1.50;0.30;;;;;;;15.20;61.98;101332.13;7387412;19;20428;-84
2022/09/16 09:45:29;;;;;;;1.65;0.30;;;;;;;15.23;61.89;101344.22;7388252;19;20082;-79
2022/09/16 09:47:58;;;;;;;;;;;;;;;15.22;61.95;101345.22;7388520;19;20013;-85
2022/09/16 09:50:37;;;;;;;1.45;0.20;;;;;;;15.23;62.09;101333.63;7387065;19;19915;-86
2022/09/16 09:53:11;;;;;;;1.52;0.38;;;;;;;15.25;62.34;101339.56;7389000;19;20043;-84
2022/09/16 09:55:40;;;;;;;2.45;0.20;;;;;;;15.31;61.63;101337.06;7388971;19;20007;-87
2022/09/16 09:58:23;;;;;;;1.30;0.20;;;;;;;15.35;61.27;101329.59;7387358;19;20018;-86
2022/09/16 10:00:54;;;;;;;;;;;;;;;15.40;61.17;101336.03;7386335;19;20097;-85
2022/09/16 10:03:23;;;;;;;2.70;0.40;;;;;;;15.45;61.10;101338.16;7385442;19;19921;-85
2022/09/16 10:05:51;;;;;;;1.02;0.20;;;;;;;15.50;61.06;101333.16;7385441;19;20010;-85
2022/09/16 10:08:22;;;;;;;1.35;0.20;;;;;;;15.51;61.48;101331.34;7387028;19;20018;-86
2022/09/16 10:10:55;;;;;;;2.83;0.22;;;;;;;15.60;62.67;101330.34;7386721;19;20023;-85
2022/09/16 10:13:24;;;;;;;1.45;0.20;;;;;;;15.69;61.47;101324.00;7389090;19;20035;-86
2022/09/16 10:15:54;;;;;;;3.13;0.30;;;;;;;15.77;61.24;101321.31;7383942;19;20163;-85
2022/09/16 10:18:23;;;;;;;1.05;0.20;;;;;;;15.80;61.30;101318.28;7389532;19;20067;-87
2022/09/16 10:21:06;;;;;;;1.52;0.10;;;;;;;15.93;59.92;101328.34;7387593;19;20011;-84
2022/09/16 10:23:34;;;;;;;0.77;0.20;;;;;;;16.01;58.62;101322.97;7386472;19;20015;-86
2022/09/16 10:26:07;;;;;;;2.42;0.10;;;;;;;16.06;59.23;101316.13;7385028;19;20135;-86
2022/09/16 10:28:34;;;;;;;4.78;0.20;;;;;;;16.17;57.93;101325.53;7381967;19;20007;-84
2022/09/16 10:31:06;;;;;;;0.90;0.10;;;;;;;16.20;56.04;101320.69;7384215;19;20393;-86
2022/09/16 10:33:41;;;;;;;1.77;0.10;;;;;;;16.14;56.55;101321.41;7383544;19;20484;-84
2022/09/16 10:36:17;;;;;;;1.23;0.10;;;;;;;16.15;56.84;101323.03;7378479;19;20018;-84
2022/09/16 10:38:52;;;;;;;0.95;0.10;;;;;;;16.19;57.59;101327.03;7382419;19;20022;-86
2022/09/16 10:41:24;;;;;;;3.00;0.10;;;;;;;16.27;56.51;101318.16;7383873;19;20374;-84
2022/09/16 10:43:58;;;;;;;0.70;0.10;;;;;;;16.33;56.00;101314.78;7378317;19;20090;-85
2022/09/16 10:46:28;;;;;;;1.15;0.10;;;;;;;16.35;56.11;101318.09;7380864;19;20036;-85
2022/09/16 10:49:01;;;;;;;0.70;0.00;;;;;;;16.34;55.73;101320.94;7380292;19;20010;-84
2022/09/16 10:51:32;;;;;;;1.40;0.00;;;;;;;16.32;55.93;101314.97;7381474;19;20011;-86
2022/09/16 10:54:01;;;;;;;1.25;0.10;;;;;;;16.26;55.28;101319.16;7379503;19;20014;-85
2022/09/16 10:56:30;;;;;;;0.47;0.00;;;;;;;16.20;55.82;101315.38;7377968;19;20040;-87
2022/09/16 10:59:02;;;;;;;0.25;0.10;;;;;;;16.27;56.03;101320.81;7381938;19;20607;-85
2022/09/16 11:01:39;;;;;;;3.53;0.10;;;;;;;16.39;53.59;101318.56;7378046;19;20019;-85
2022/09/16 11:04:14;;;;;;;1.88;0.05;;;;;;;16.45;53.49;101317.84;7382045;19;20050;-84
2022/09/16 11:06:44;;;;;;;0.68;0.00;;;;;;;16.47;53.06;101313.16;7380649;19;20032;-84
2022/09/16 11:09:20;;;;;;;1.42;0.00;;;;;;;16.48;53.69;101313.00;7376012;19;20421;-85
2022/09/16 11:11:49;;;;;;;0.88;0.00;;;;;;;16.57;52.33;101321.72;7382150;19;20422;-85
2022/09/16 11:17:00;;;;;;;3.75;0.20;;;;;;;16.45;53.08;101333.78;7377371;19;20022;-84
2022/09/16 11:19:41;;;;;;;0.65;0.10;;;;;;;16.42;53.70;101326.16;7385459;19;20007;-85
2022/09/16 11:22:12;;;;;;;1.58;0.10;;;;;;;16.45;55.39;101325.81;7384878;19;20015;-87
2022/09/16 11:24:49;;;;;;;0.33;0.03;;;;;;;16.50;54.05;101332.25;7385954;19;20018;-87
2022/09/16 11:29:50;;;;;;;28.98;16.35;;;;;;;16.66;53.51;101332.13;7384965;19;20015;-86
2022/09/16 11:32:18;;;;;;;0.68;0.10;;;;;;;16.74;52.49;101322.44;7387821;19;20022;-84
2022/09/16 11:35:01;;;;;;;0.73;0.00;;;;;;;16.78;52.82;101327.22;7385534;19;20022;-85
2022/09/16 11:37:32;;;;;;;;;;;;;;;16.86;52.58;101326.31;7389659;19;20015;-86
2022/09/16 11:40:04;;;;;;;1.88;0.10;;;;;;;16.87;52.41;101325.28;7389934;19;19918;-84
2022/09/16 11:42:40;;;;;;;0.20;0.00;;;;;;;16.92;51.07;101320.25;7388310;19;20056;-83
2022/09/16 11:45:12;;;;;;;2.45;0.10;;;;;;;17.06;49.65;101322.13;7388057;19;20011;-84
2022/09/16 11:47:41;;;;;;;1.15;0.00;;;;;;;17.05;49.05;101325.78;7392284;19;20383;-85
2022/09/16 11:50:14;;;;;;;2.65;0.08;;;;;;;17.05;47.51;101320.47;7389454;19;20010;-84
2022/09/16 11:52:51;;;;;;;0.30;0.00;;;;;;;17.07;47.38;101319.25;7393313;19;20018;-85
2022/09/16 11:55:28;;;;;;;0.55;0.20;;;;;;;17.12;48.04;101317.91;7390319;19;20044;-84
2022/09/16 11:58:02;;;;;;;1.55;0.10;;;;;;;17.14;48.34;101313.22;7389028;19;20018;-85
2022/09/16 12:00:41;;;;;;;1.55;0.08;;;;;;;17.11;49.36;101319.72;7388350;19;20022;-85
2022/09/16 12:03:12;;;;;;;0.73;0.00;;;;;;;17.15;48.86;101322.84;7389565;19;20025;-83